Time;durP1;ratioP1;P1;durP2;ratioP2;P2;SDS_P1;SDS_P2;PMS_P1;PMS_P2;Temp;Humidity;BMP_temperature;BMP_pressure;BME280_temperature;BME280_humidity;BME280_pressure;Samples;Min_cycle;Max_cycle;Signal;HPM_P1;HPM_P2
2023/08/17 02:00:12;;;;;;;12.00;5.50;;;;;;;;;;5051204;27;19976;-79
2023/08/17 02:02:40;;;;;;;8.88;5.50;;;;;;;;;;4317710;33;20434;-82
2023/08/17 02:05:07;;;;;;;18.10;5.60;;;;;;;;;;4319431;33;20088;-80
2023/08/17 02:07:34;;;;;;;13.20;6.53;;;;;;;;;;4310609;33;20059;-80
2023/08/17 02:10:00;;;;;;;8.38;5.30;;;;;;;;;;4321228;33;20048;-81
2023/08/17 02:12:26;;;;;;;9.50;5.22;;;;;;;;;;4324771;33;20106;-79
2023/08/17 02:14:53;;;;;;;17.10;5.20;;;;;;;;;;4325002;33;20041;-80
2023/08/17 02:17:21;;;;;;;10.20;4.97;;;;;;;;;;4324817;33;20062;-80
2023/08/17 02:19:47;;;;;;;6.80;5.18;;;;;;;;;;4322645;33;20087;-80
2023/08/17 02:22:14;;;;;;;11.15;5.70;;;;;;;;;;4323763;33;20066;-79
2023/08/17 02:24:40;;;;;;;11.88;6.37;;;;;;;;;;4324900;33;20041;-80
2023/08/17 02:27:07;;;;;;;9.07;6.03;;;;;;;;;;4316982;33;20121;-80
2023/08/17 02:29:33;;;;;;;14.10;6.07;;;;;;;;;;4296967;33;20037;-81
2023/08/17 02:32:00;;;;;;;10.82;5.82;;;;;;;;;;4299848;33;20048;-80
2023/08/17 02:34:26;;;;;;;18.73;6.55;;;;;;;;;;4307464;33;20501;-80
2023/08/17 02:36:52;;;;;;;7.90;5.93;;;;;;;;;;4294934;33;20473;-81
2023/08/17 02:39:18;;;;;;;10.85;6.57;;;;;;;;;;4290415;33;20065;-80
2023/08/17 02:41:45;;;;;;;13.77;7.20;;;;;;;;;;4278185;33;20420;-80
2023/08/17 02:44:10;;;;;;;14.43;8.23;;;;;;;;;;4289476;33;20148;-80
2023/08/17 02:46:37;;;;;;;8.45;5.55;;;;;;;;;;4294645;33;20098;-79
2023/08/17 02:49:03;;;;;;;15.10;6.70;;;;;;;;;;4289334;33;20409;-79
2023/08/17 02:51:29;;;;;;;8.70;5.93;;;;;;;;;;4282884;33;20063;-79
2023/08/17 02:53:55;;;;;;;11.60;5.93;;;;;;;;;;4291864;33;20059;-79
2023/08/17 02:56:21;;;;;;;10.15;7.22;;;;;;;;;;4293982;33;20069;-79
2023/08/17 02:58:47;;;;;;;14.98;6.60;;;;;;;;;;4294720;33;20049;-80
2023/08/17 03:01:14;;;;;;;10.02;6.15;;;;;;;;;;4308275;33;20045;-80
2023/08/17 03:03:40;;;;;;;11.38;6.40;;;;;;;;;;4293329;33;20055;-80
2023/08/17 03:06:07;;;;;;;15.38;6.45;;;;;;;;;;4291683;33;20045;-79
2023/08/17 03:08:33;;;;;;;11.10;6.40;;;;;;;;;;4289701;33;20070;-79
2023/08/17 03:11:00;;;;;;;10.48;6.57;;;;;;;;;;4293861;33;20045;-80
2023/08/17 03:13:26;;;;;;;9.60;6.43;;;;;;;;;;4294354;33;20465;-80
2023/08/17 03:15:52;;;;;;;14.35;6.97;;;;;;;;;;4293899;33;20042;-79
2023/08/17 03:18:18;;;;;;;13.48;7.30;;;;;;;;;;4282661;33;20037;-79
2023/08/17 03:20:45;;;;;;;11.60;7.47;;;;;;;;;;4279906;33;20080;-79
2023/08/17 03:23:11;;;;;;;11.35;7.20;;;;;;;;;;4294442;33;20041;-79
2023/08/17 03:25:38;;;;;;;13.07;6.70;;;;;;;;;;4264295;33;20072;-79
2023/08/17 03:28:04;;;;;;;21.30;7.68;;;;;;;;;;4252007;33;20046;-79
2023/08/17 03:30:31;;;;;;;11.50;6.97;;;;;;;;;;4249511;33;20064;-79
2023/08/17 03:32:57;;;;;;;15.05;6.90;;;;;;;;;;4251692;33;20031;-79
2023/08/17 03:35:23;;;;;;;11.20;6.78;;;;;;;;;;4273011;33;20068;-79
2023/08/17 03:37:49;;;;;;;16.37;7.03;;;;;;;;;;4280365;33;20045;-79
2023/08/17 03:40:15;;;;;;;18.40;6.47;;;;;;;;;;4277137;33;20049;-80
2023/08/17 03:42:41;;;;;;;7.85;6.28;;;;;;;;;;4280710;33;20636;-79
2023/08/17 03:45:08;;;;;;;12.88;7.20;;;;;;;;;;4280032;33;20395;-79
2023/08/17 03:47:34;;;;;;;20.75;6.53;;;;;;;;;;4280781;33;20037;-79
2023/08/17 03:50:00;;;;;;;9.90;6.50;;;;;;;;;;4279390;33;20054;-78
2023/08/17 03:52:27;;;;;;;8.70;6.07;;;;;;;;;;4277609;33;20575;-78
2023/08/17 03:54:53;;;;;;;12.55;6.40;;;;;;;;;;4265196;33;20060;-78
2023/08/17 03:57:19;;;;;;;15.20;6.22;;;;;;;;;;4276179;33;20057;-80
2023/08/17 03:59:45;;;;;;;10.35;6.53;;;;;;;;;;4294830;33;20459;-78
2023/08/17 04:02:11;;;;;;;13.65;6.40;;;;;;;;;;4304870;33;20398;-78
2023/08/17 04:04:38;;;;;;;8.63;6.05;;;;;;;;;;4307775;33;20067;-78
2023/08/17 04:07:06;;;;;;;13.62;6.85;;;;;;;;;;4307636;33;20059;-79
2023/08/17 04:09:33;;;;;;;13.85;7.78;;;;;;;;;;4302868;33;20067;-79
2023/08/17 04:11:59;;;;;;;22.95;7.60;;;;;;;;;;4294823;33;20478;-78
2023/08/17 04:14:26;;;;;;;11.52;6.35;;;;;;;;;;4274379;33;20868;-80
2023/08/17 04:16:53;;;;;;;8.55;6.32;;;;;;;;;;4271102;33;20057;-80
2023/08/17 04:19:20;;;;;;;11.25;6.82;;;;;;;;;;4265805;33;20180;-79
2023/08/17 04:21:46;;;;;;;22.05;7.40;;;;;;;;;;4264480;33;20072;-79
2023/08/17 04:24:12;;;;;;;17.15;6.70;;;;;;;;;;4266071;33;20072;-79
2023/08/17 04:26:38;;;;;;;15.77;6.85;;;;;;;;;;4265512;33;20475;-79
2023/08/17 04:29:05;;;;;;;11.93;6.62;;;;;;;;;;4279462;33;20041;-79
2023/08/17 04:31:32;;;;;;;25.62;7.62;;;;;;;;;;4278900;33;20864;-79
2023/08/17 04:33:59;;;;;;;11.23;6.32;;;;;;;;;;4275538;33;20038;-80
2023/08/17 04:36:26;;;;;;;7.90;6.60;;;;;;;;;;4279535;33;20061;-80
2023/08/17 04:38:54;;;;;;;10.07;6.22;;;;;;;;;;4269631;33;20029;-79
2023/08/17 04:41:20;;;;;;;15.35;6.95;;;;;;;;;;4282758;33;20836;-79
2023/08/17 04:43:49;;;;;;;10.93;6.95;;;;;;;;;;4291955;33;20359;-79
2023/08/17 04:46:15;;;;;;;9.18;6.45;;;;;;;;;;4267051;33;20167;-79
2023/08/17 04:48:42;;;;;;;19.98;7.18;;;;;;;;;;4266787;33;20053;-79
2023/08/17 04:51:08;;;;;;;8.90;5.93;;;;;;;;;;4267358;33;20038;-80
2023/08/17 04:53:34;;;;;;;13.40;6.50;;;;;;;;;;4267099;33;20085;-80
2023/08/17 04:56:00;;;;;;;20.25;7.05;;;;;;;;;;4268180;33;20042;-80
2023/08/17 04:58:26;;;;;;;16.45;6.80;;;;;;;;;;4268086;33;20041;-83
2023/08/17 05:00:52;;;;;;;8.48;6.47;;;;;;;;;;4266571;33;20437;-84
2023/08/17 05:03:19;;;;;;;18.52;7.65;;;;;;;;;;4295531;33;20057;-83
2023/08/17 05:05:45;;;;;;;13.68;7.85;;;;;;;;;;4283126;33;20045;-83
2023/08/17 05:08:11;;;;;;;18.52;7.47;;;;;;;;;;4283785;33;20090;-80
2023/08/17 05:10:37;;;;;;;11.10;7.35;;;;;;;;;;4295272;33;20049;-80
2023/08/17 05:13:03;;;;;;;14.20;7.65;;;;;;;;;;4293283;33;20101;-79
2023/08/17 05:15:31;;;;;;;10.77;6.75;;;;;;;;;;4292468;33;20402;-79
2023/08/17 05:17:58;;;;;;;11.77;7.20;;;;;;;;;;4295750;33;20045;-79
2023/08/17 05:20:24;;;;;;;14.98;7.87;;;;;;;;;;4266703;33;20060;-80
2023/08/17 05:22:50;;;;;;;13.85;8.25;;;;;;;;;;4264216;33;20084;-78
2023/08/17 05:25:17;;;;;;;9.18;6.70;;;;;;;;;;4266286;33;20079;-80
2023/08/17 05:27:45;;;;;;;21.77;7.18;;;;;;;;;;4280756;33;20048;-79
2023/08/17 05:30:11;;;;;;;16.25;7.47;;;;;;;;;;4282285;33;20455;-78
2023/08/17 05:32:39;;;;;;;15.77;7.43;;;;;;;;;;4263987;33;20049;-79
2023/08/17 05:35:06;;;;;;;16.33;7.47;;;;;;;;;;4261032;33;20461;-78
2023/08/17 05:37:32;;;;;;;18.30;8.15;;;;;;;;;;4265819;33;20052;-78
2023/08/17 05:39:58;;;;;;;15.65;8.02;;;;;;;;;;4267014;33;20428;-77
2023/08/17 05:42:25;;;;;;;21.37;7.53;;;;;;;;;;4267139;33;20094;-78
2023/08/17 05:44:51;;;;;;;14.23;7.25;;;;;;;;;;4263765;33;20127;-78
2023/08/17 05:47:19;;;;;;;20.48;6.47;;;;;;;;;;4263197;33;20091;-78
2023/08/17 05:49:45;;;;;;;14.98;7.53;;;;;;;;;;4248775;33;20815;-79
2023/08/17 05:52:12;;;;;;;18.75;7.30;;;;;;;;;;4273176;33;20029;-78
2023/08/17 05:54:38;;;;;;;18.37;7.95;;;;;;;;;;4280767;33;20045;-78
2023/08/17 05:57:04;;;;;;;16.00;7.25;;;;;;;;;;4282655;33;20057;-76
2023/08/17 05:59:30;;;;;;;10.02;6.93;;;;;;;;;;4268520;33;20085;-76
2023/08/17 06:01:56;;;;;;;12.02;7.78;;;;;;;;;;4276519;33;20100;-76
2023/08/17 06:04:23;;;;;;;23.70;7.75;;;;;;;;;;4293760;33;20037;-76
2023/08/17 06:06:49;;;;;;;18.42;6.50;;;;;;;;;;4297526;33;20364;-76
2023/08/17 06:09:15;;;;;;;18.67;7.43;;;;;;;;;;4299131;33;20037;-77
2023/08/17 06:11:41;;;;;;;13.32;6.50;;;;;;;;;;4301318;33;20037;-76
2023/08/17 06:14:07;;;;;;;15.68;7.12;;;;;;;;;;4283940;33;20064;-80
2023/08/17 06:16:34;;;;;;;11.10;7.35;;;;;;;;;;4292936;33;20656;-81
2023/08/17 06:19:00;;;;;;;19.65;7.43;;;;;;;;;;4297032;33;20128;-82
2023/08/17 06:21:27;;;;;;;13.98;7.57;;;;;;;;;;4293898;33;20095;-80
2023/08/17 06:23:53;;;;;;;14.77;6.95;;;;;;;;;;4316942;33;20056;-79
2023/08/17 06:26:19;;;;;;;13.73;6.70;;;;;;;;;;4309171;33;20494;-79
2023/08/17 06:28:45;;;;;;;15.32;6.78;;;;;;;;;;4310021;33;20096;-81
2023/08/17 06:31:14;;;;;;;12.23;6.93;;;;;;;;;;4309284;33;20787;-79
2023/08/17 06:33:40;;;;;;;16.25;7.22;;;;;;;;;;4308401;33;20078;-79
2023/08/17 06:36:06;;;;;;;16.58;7.55;;;;;;;;;;4309864;33;20064;-79
2023/08/17 06:38:32;;;;;;;10.60;6.32;;;;;;;;;;4308873;33;20095;-79
2023/08/17 06:40:59;;;;;;;16.20;6.90;;;;;;;;;;4308014;33;20049;-79
2023/08/17 06:43:24;;;;;;;20.88;7.43;;;;;;;;;;4306616;33;20419;-79
2023/08/17 06:45:51;;;;;;;19.35;7.60;;;;;;;;;;4316092;33;20672;-81
2023/08/17 06:48:17;;;;;;;14.55;7.32;;;;;;;;;;4308626;33;20049;-79
2023/08/17 06:50:43;;;;;;;16.00;7.60;;;;;;;;;;4311639;33;20514;-79
2023/08/17 06:53:09;;;;;;;17.52;7.10;;;;;;;;;;4303479;33;20056;-80
2023/08/17 06:55:36;;;;;;;10.93;7.07;;;;;;;;;;4281993;33;20046;-79
2023/08/17 06:58:02;;;;;;;20.25;6.35;;;;;;;;;;4282882;33;20067;-77
2023/08/17 07:00:29;;;;;;;11.68;7.05;;;;;;;;;;4277547;33;20087;-77
2023/08/17 07:02:55;;;;;;;27.02;7.45;;;;;;;;;;4290160;33;20092;-80
2023/08/17 07:05:28;;;;;;;25.80;7.35;;;;;;;;;;4291354;33;20060;-80
2023/08/17 07:07:55;;;;;;;13.38;6.62;;;;;;;;;;4294308;33;20080;-77
2023/08/17 07:10:21;;;;;;;20.40;7.62;;;;;;;;;;4293838;33;20057;-79
2023/08/17 07:12:47;;;;;;;18.80;7.40;;;;;;;;;;4293420;33;20105;-79
2023/08/17 07:15:14;;;;;;;17.08;7.18;;;;;;;;;;4293355;33;20052;-79
2023/08/17 07:17:41;;;;;;;10.75;7.60;;;;;;;;;;4280762;33;20072;-79
2023/08/17 07:20:07;;;;;;;18.85;7.40;;;;;;;;;;4279043;33;20053;-79
2023/08/17 07:22:33;;;;;;;20.70;7.50;;;;;;;;;;4281470;33;20049;-76
2023/08/17 07:25:00;;;;;;;13.62;7.75;;;;;;;;;;4292251;33;20475;-81
2023/08/17 07:27:26;;;;;;;18.90;7.55;;;;;;;;;;4276389;33;20041;-85
2023/08/17 07:29:52;;;;;;;9.40;6.97;;;;;;;;;;4269074;33;20091;-82
2023/08/17 07:32:18;;;;;;;13.90;6.75;;;;;;;;;;4264180;33;20510;-82
2023/08/17 07:34:45;;;;;;;20.62;6.97;;;;;;;;;;4265234;33;20079;-81
2023/08/17 07:37:11;;;;;;;15.10;7.57;;;;;;;;;;4263014;33;20057;-81
2023/08/17 07:39:37;;;;;;;17.17;6.78;;;;;;;;;;4263617;33;20100;-82
2023/08/17 07:42:03;;;;;;;14.68;7.35;;;;;;;;;;4267893;33;20409;-81
2023/08/17 07:44:31;;;;;;;10.95;7.12;;;;;;;;;;4263138;33;20123;-78
2023/08/17 07:46:58;;;;;;;21.62;7.37;;;;;;;;;;4266885;33;20038;-83
2023/08/17 07:49:25;;;;;;;10.23;6.65;;;;;;;;;;4276015;33;20053;-77
2023/08/17 07:51:51;;;;;;;16.50;7.65;;;;;;;;;;4295750;33;20129;-80
2023/08/17 07:54:18;;;;;;;14.38;7.43;;;;;;;;;;4301867;33;20123;-80
2023/08/17 07:56:44;;;;;;;16.55;6.32;;;;;;;;;;4299237;33;20151;-80
2023/08/17 07:59:10;;;;;;;11.32;6.95;;;;;;;;;;4308972;33;20240;-80
2023/08/17 08:01:36;;;;;;;22.65;7.03;;;;;;;;;;4316856;33;20090;-79
2023/08/17 08:04:03;;;;;;;17.80;7.32;;;;;;;;;;4329938;33;20081;-78
2023/08/17 08:06:29;;;;;;;16.65;7.32;;;;;;;;;;4327521;33;20037;-80
2023/08/17 08:08:55;;;;;;;11.05;7.37;;;;;;;;;;4322826;33;20036;-80
2023/08/17 08:11:22;;;;;;;18.35;7.57;;;;;;;;;;4326131;33;20051;-79
2023/08/17 08:13:55;;;;;;;27.05;8.55;;;;;;;;;;4323219;33;20055;-81
2023/08/17 08:16:22;;;;;;;34.65;8.43;;;;;;;;;;4325887;33;20413;-80
2023/08/17 08:18:48;;;;;;;16.77;7.05;;;;;;;;;;4330905;33;20054;-81
2023/08/17 08:21:15;;;;;;;31.12;8.90;;;;;;;;;;4326645;33;20198;-78
2023/08/17 08:23:41;;;;;;;25.70;7.75;;;;;;;;;;4287127;33;20053;-81
2023/08/17 08:26:07;;;;;;;20.85;9.30;;;;;;;;;;4296424;33;20083;-83
2023/08/17 08:28:40;;;;;;;20.88;7.43;;;;;;;;;;4314451;33;20086;-79
2023/08/17 08:31:06;;;;;;;12.43;8.50;;;;;;;;;;4308028;33;20048;-81
2023/08/17 08:33:32;;;;;;;28.12;9.18;;;;;;;;;;4308789;33;20044;-78
2023/08/17 08:35:59;;;;;;;17.60;8.90;;;;;;;;;;4308405;33;20549;-79
2023/08/17 08:38:25;;;;;;;27.05;8.88;;;;;;;;;;4312726;33;20049;-80
2023/08/17 08:40:51;;;;;;;24.23;8.40;;;;;;;;;;4311894;33;20074;-80
2023/08/17 08:43:17;;;;;;;18.12;10.05;;;;;;;;;;4311938;33;20079;-80
2023/08/17 08:45:44;;;;;;;16.37;8.75;;;;;;;;;;4308640;33;20045;-79
2023/08/17 08:48:14;;;;;;;27.42;9.07;;;;;;;;;;4310137;33;20057;-82
2023/08/17 08:50:40;;;;;;;24.25;9.50;;;;;;;;;;4308281;33;20057;-80
2023/08/17 08:53:11;;;;;;;17.77;9.52;;;;;;;;;;4312884;33;20036;-81
2023/08/17 08:55:38;;;;;;;22.40;8.07;;;;;;;;;;4313319;33;20108;-81
2023/08/17 08:58:05;;;;;;;13.35;8.75;;;;;;;;;;4280052;33;20160;-80
2023/08/17 09:00:34;;;;;;;19.87;9.50;;;;;;;;;;4284751;33;20086;-80
2023/08/17 09:03:02;;;;;;;27.65;9.35;;;;;;;;;;4280188;33;20034;-78
2023/08/17 09:05:29;;;;;;;18.42;9.15;;;;;;;;;;4279268;33;20056;-79
2023/08/17 09:07:57;;;;;;;14.02;7.90;;;;;;;;;;4278854;33;20041;-81
2023/08/17 09:10:23;;;;;;;20.60;8.48;;;;;;;;;;4281053;33;20061;-79
2023/08/17 09:12:49;;;;;;;19.52;9.38;;;;;;;;;;4280293;33;20037;-79
2023/08/17 09:15:15;;;;;;;18.15;8.02;;;;;;;;;;4265012;33;20588;-79
2023/08/17 09:17:42;;;;;;;14.63;7.47;;;;;;;;;;4265239;33;20046;-80
2023/08/17 09:20:09;;;;;;;32.42;10.18;;;;;;;;;;4264263;33;20351;-81
2023/08/17 09:22:41;;;;;;;13.32;8.93;;;;;;;;;;4266590;33;20045;-80
2023/08/17 09:25:09;;;;;;;17.60;8.45;;;;;;;;;;4261274;33;20108;-81
2023/08/17 09:27:36;;;;;;;16.30;8.85;;;;;;;;;;4266189;33;20034;-80
2023/08/17 09:30:04;;;;;;;20.80;8.20;;;;;;;;;;4282697;33;20057;-82
2023/08/17 09:32:30;;;;;;;19.42;9.52;;;;;;;;;;4272570;33;20038;-82
2023/08/17 09:34:57;;;;;;;23.35;9.73;;;;;;;;;;4264457;33;21327;-84
2023/08/17 09:37:23;;;;;;;12.82;9.45;;;;;;;;;;4265853;33;20045;-80
2023/08/17 09:39:49;;;;;;;25.83;9.93;;;;;;;;;;4271017;33;20059;-77
2023/08/17 09:42:17;;;;;;;25.20;9.75;;;;;;;;;;4263373;33;20098;-80
2023/08/17 09:44:44;;;;;;;12.02;8.07;;;;;;;;;;4269274;33;20061;-78
2023/08/17 09:47:10;;;;;;;12.85;7.68;;;;;;;;;;4253291;33;20177;-79
2023/08/17 09:49:36;;;;;;;16.92;9.50;;;;;;;;;;4255435;33;20583;-79
2023/08/17 09:52:02;;;;;;;16.70;7.75;;;;;;;;;;4258313;33;20058;-81
2023/08/17 09:54:30;;;;;;;16.73;8.20;;;;;;;;;;4248960;33;20409;-79
2023/08/17 09:56:57;;;;;;;12.48;8.40;;;;;;;;;;4249988;33;20071;-77
2023/08/17 09:59:23;;;;;;;15.05;8.20;;;;;;;;;;4246726;33;20046;-81
2023/08/17 10:01:50;;;;;;;22.87;8.60;;;;;;;;;;4248077;33;20085;-80
2023/08/17 10:04:23;;;;;;;20.33;9.40;;;;;;;;;;4249788;33;20215;-79
2023/08/17 10:06:59;;;;;;;14.43;8.38;;;;;;;;;;4251778;33;20046;-79
2023/08/17 10:09:28;;;;;;;13.23;7.43;;;;;;;;;;4222996;33;20056;-80
2023/08/17 10:11:57;;;;;;;26.75;7.82;;;;;;;;;;4213420;33;20043;-80
2023/08/17 10:14:29;;;;;;;20.50;8.38;;;;;;;;;;4220735;33;20200;-79
2023/08/17 10:17:00;;;;;;;25.67;8.07;;;;;;;;;;4221424;33;20047;-79
2023/08/17 10:19:32;;;;;;;13.40;8.68;;;;;;;;;;4258625;33;20085;-80
2023/08/17 10:22:06;;;;;;;10.07;7.75;;;;;;;;;;4232807;33;20546;-79
2023/08/17 10:24:35;;;;;;;18.48;9.07;;;;;;;;;;4231831;33;20477;-79
2023/08/17 10:27:03;;;;;;;17.62;9.85;;;;;;;;;;4236029;33;20054;-77
2023/08/17 10:29:29;;;;;;;26.02;7.93;;;;;;;;;;4226370;33;20393;-77
2023/08/17 10:31:55;;;;;;;21.42;8.38;;;;;;;;;;4233931;33;20043;-79
2023/08/17 10:34:28;;;;;;;27.17;8.55;;;;;;;;;;4233254;33;20054;-78
2023/08/17 10:36:57;;;;;;;17.33;8.00;;;;;;;;;;4232140;33;20506;-80
2023/08/17 10:39:26;;;;;;;12.40;8.38;;;;;;;;;;4235913;33;20082;-79
2023/08/17 10:41:52;;;;;;;16.05;9.10;;;;;;;;;;4246053;33;20085;-81
2023/08/17 10:44:37;;;;;;;20.08;10.43;;;;;;;;;;4249022;33;20041;-77
2023/08/17 10:49:55;;;;;;;16.52;10.43;;;;;;;;;;4246795;33;20049;-75
2023/08/17 10:52:25;;;;;;;19.45;9.52;;;;;;;;;;4255430;33;20123;-75
2023/08/17 10:54:52;;;;;;;20.05;8.43;;;;;;;;;;4264494;33;20049;-77
2023/08/17 10:57:25;;;;;;;12.75;8.98;;;;;;;;;;4272192;33;20471;-79
2023/08/17 11:03:20;;;;;;;15.73;8.57;;;;;;;;;;4128610;31;20087;-79
2023/08/17 11:05:53;;;;;;;29.40;9.90;;;;;;;;;;4308041;33;20066;-79
2023/08/17 11:08:22;;;;;;;23.73;10.18;;;;;;;;;;4309483;33;20050;-79
2023/08/17 11:10:57;;;;;;;22.40;9.75;;;;;;;;;;4310580;33;20060;-79
2023/08/17 11:13:24;;;;;;;18.40;9.82;;;;;;;;;;4308098;33;20118;-80
2023/08/17 11:15:50;;;;;;;14.93;8.75;;;;;;;;;;4309653;33;20044;-79
2023/08/17 11:18:16;;;;;;;12.82;9.00;;;;;;;;;;4303909;33;20070;-81
2023/08/17 11:20:43;;;;;;;17.60;10.27;;;;;;;;;;4309160;33;20413;-80
2023/08/17 11:23:10;;;;;;;21.12;9.13;;;;;;;;;;4302259;33;20078;-82
2023/08/17 11:25:37;;;;;;;15.52;9.40;;;;;;;;;;4309518;33;20090;-82
2023/08/17 11:28:03;;;;;;;9.85;8.48;;;;;;;;;;4311350;33;20041;-83
2023/08/17 11:30:30;;;;;;;9.80;8.73;;;;;;;;;;4312290;33;20123;-85
2023/08/17 11:32:56;;;;;;;10.15;7.57;;;;;;;;;;4309876;33;20209;-85
2023/08/17 11:35:22;;;;;;;17.50;9.07;;;;;;;;;;4303294;33;20446;-83
2023/08/17 11:37:49;;;;;;;14.27;9.30;;;;;;;;;;4303953;33;20379;-83
2023/08/17 11:40:15;;;;;;;17.62;9.85;;;;;;;;;;4302800;33;20064;-84
2023/08/17 11:42:41;;;;;;;15.80;9.75;;;;;;;;;;4308389;33;20029;-84
2023/08/17 11:45:11;;;;;;;17.25;8.70;;;;;;;;;;4308296;33;20058;-83
2023/08/17 11:47:40;;;;;;;20.37;9.65;;;;;;;;;;4309951;33;20066;-87
2023/08/17 11:50:08;;;;;;;14.52;8.93;;;;;;;;;;4309746;33;20049;-82
2023/08/17 11:52:36;;;;;;;19.33;10.48;;;;;;;;;;4310473;33;20049;-84
2023/08/17 11:55:05;;;;;;;11.50;9.20;;;;;;;;;;4305366;33;20063;-82
2023/08/17 11:57:34;;;;;;;13.25;9.20;;;;;;;;;;4291726;33;20455;-84
2023/08/17 12:00:01;;;;;;;14.52;9.88;;;;;;;;;;4279447;33;20049;-84
2023/08/17 12:02:37;;;;;;;14.80;9.63;;;;;;;;;;4290227;33;20025;-83
2023/08/17 12:05:06;;;;;;;15.57;9.80;;;;;;;;;;4291617;33;20093;-84
2023/08/17 12:07:32;;;;;;;18.60;9.75;;;;;;;;;;4288832;33;20198;-83
2023/08/17 12:09:58;;;;;;;17.08;8.70;;;;;;;;;;4286767;33;20198;-84
2023/08/17 12:12:25;;;;;;;15.68;9.48;;;;;;;;;;4286044;33;20037;-83
2023/08/17 12:14:51;;;;;;;18.25;10.20;;;;;;;;;;4288034;33;20045;-83
2023/08/17 12:17:18;;;;;;;9.63;8.38;;;;;;;;;;4293960;33;20092;-82
2023/08/17 12:19:44;;;;;;;15.27;9.63;;;;;;;;;;4293997;33;20037;-83
2023/08/17 12:22:12;;;;;;;13.98;9.55;;;;;;;;;;4293364;33;20041;-82
2023/08/17 12:24:38;;;;;;;12.25;9.65;;;;;;;;;;4266180;33;20049;-83
2023/08/17 12:27:05;;;;;;;10.32;8.93;;;;;;;;;;4266253;33;20065;-84
2023/08/17 12:29:31;;;;;;;10.75;9.18;;;;;;;;;;4276861;33;20049;-86
2023/08/17 12:31:58;;;;;;;12.07;8.75;;;;;;;;;;4268323;33;20194;-84
2023/08/17 12:34:25;;;;;;;14.68;9.82;;;;;;;;;;4268214;33;20116;-84
2023/08/17 12:36:51;;;;;;;15.00;9.70;;;;;;;;;;4266136;33;20061;-83
2023/08/17 12:39:17;;;;;;;19.25;9.68;;;;;;;;;;4250014;33;20479;-83
2023/08/17 12:41:44;;;;;;;17.35;11.70;;;;;;;;;;4237245;33;20062;-83
2023/08/17 12:44:13;;;;;;;14.52;11.35;;;;;;;;;;4246830;33;20078;-82
2023/08/17 12:46:39;;;;;;;20.70;10.68;;;;;;;;;;4249003;33;20486;-82
2023/08/17 12:49:06;;;;;;;23.52;11.75;;;;;;;;;;4246545;33;20076;-81
2023/08/17 12:51:32;;;;;;;16.73;10.73;;;;;;;;;;4238577;33;20043;-80
2023/08/17 12:53:58;;;;;;;29.30;10.52;;;;;;;;;;4237547;33;20047;-80
2023/08/17 12:56:24;;;;;;;14.90;11.27;;;;;;;;;;4241603;33;20081;-80
2023/08/17 12:58:51;;;;;;;28.52;11.32;;;;;;;;;;4265459;33;20029;-79
2023/08/17 13:01:18;;;;;;;16.83;9.98;;;;;;;;;;4280824;33;20423;-78
2023/08/17 13:03:45;;;;;;;15.70;10.57;;;;;;;;;;4292125;33;20050;-78
2023/08/17 13:06:11;;;;;;;33.00;12.25;;;;;;;;;;4295428;33;20059;-78
2023/08/17 13:08:37;;;;;;;17.98;12.20;;;;;;;;;;4296622;33;20409;-78
2023/08/17 13:11:03;;;;;;;31.92;11.85;;;;;;;;;;4295195;33;20082;-78
2023/08/17 13:13:29;;;;;;;22.50;11.75;;;;;;;;;;4280419;33;20172;-80
2023/08/17 13:15:55;;;;;;;13.73;10.88;;;;;;;;;;4279010;33;20056;-83
2023/08/17 13:18:22;;;;;;;24.17;12.50;;;;;;;;;;4281490;33;20094;-82
2023/08/17 13:20:47;;;;;;;19.25;10.55;;;;;;;;;;4295410;33;20037;-81
2023/08/17 13:23:14;;;;;;;15.43;10.88;;;;;;;;;;4293879;33;20139;-79
2023/08/17 13:25:53;;;;;;;20.88;10.65;;;;;;;;;;4294134;33;20450;-80
2023/08/17 13:28:24;;;;;;;17.60;11.65;;;;;;;;;;4279212;33;20053;-80
2023/08/17 13:30:59;;;;;;;15.88;11.52;;;;;;;;;;4279284;33;20057;-80
2023/08/17 13:33:31;;;;;;;17.10;11.60;;;;;;;;;;4248603;33;20484;-78
2023/08/17 13:35:57;;;;;;;19.87;10.50;;;;;;;;;;4245916;33;20442;-77
2023/08/17 13:38:23;;;;;;;11.43;9.57;;;;;;;;;;4232944;33;20076;-78
2023/08/17 13:40:49;;;;;;;24.50;10.63;;;;;;;;;;4239085;33;20035;-78
2023/08/17 13:43:16;;;;;;;28.60;10.88;;;;;;;;;;4242832;33;20054;-79
2023/08/17 13:45:42;;;;;;;22.73;11.12;;;;;;;;;;4247238;33;20278;-80
2023/08/17 13:48:09;;;;;;;18.98;10.65;;;;;;;;;;4249987;33;20049;-78
2023/08/17 13:50:37;;;;;;;17.58;8.32;;;;;;;;;;4250541;33;20057;-79
2023/08/17 13:53:03;;;;;;;22.10;10.43;;;;;;;;;;4252018;33;20064;-79
2023/08/17 13:55:29;;;;;;;17.95;8.15;;;;;;;;;;4251394;33;20034;-78
2023/08/17 13:58:02;;;;;;;13.30;7.20;;;;;;;;;;4260556;33;20457;-77
2023/08/17 14:00:28;;;;;;;22.67;8.40;;;;;;;;;;4264457;33;20079;-77
2023/08/17 14:02:55;;;;;;;16.90;8.57;;;;;;;;;;4276449;33;20030;-78
2023/08/17 14:05:21;;;;;;;9.73;8.63;;;;;;;;;;4283756;33;20025;-78
2023/08/17 14:07:47;;;;;;;7.47;6.55;;;;;;;;;;4284190;33;20475;-78
2023/08/17 14:10:14;;;;;;;7.78;7.07;;;;;;;;;;4293694;33;20073;-77
2023/08/17 14:12:40;;;;;;;12.90;7.03;;;;;;;;;;4288693;33;20060;-77
2023/08/17 14:15:06;;;;;;;14.23;7.37;;;;;;;;;;4297340;33;20045;-76
2023/08/17 14:17:33;;;;;;;18.98;7.43;;;;;;;;;;4319432;33;20062;-77
2023/08/17 14:19:59;;;;;;;18.85;6.82;;;;;;;;;;4321658;33;20048;-79
2023/08/17 14:22:32;;;;;;;9.35;7.93;;;;;;;;;;4323675;33;20222;-79
2023/08/17 14:24:59;;;;;;;13.77;7.12;;;;;;;;;;4321303;33;20040;-82
2023/08/17 14:27:25;;;;;;;11.18;8.43;;;;;;;;;;4324295;33;20135;-80
2023/08/17 14:29:51;;;;;;;13.27;7.47;;;;;;;;;;4311705;33;20041;-80
2023/08/17 14:32:18;;;;;;;14.85;6.72;;;;;;;;;;4311938;33;20061;-79
2023/08/17 14:34:44;;;;;;;16.67;8.30;;;;;;;;;;4310821;33;20091;-79
2023/08/17 14:37:10;;;;;;;12.45;9.70;;;;;;;;;;4311206;33;20075;-80
2023/08/17 14:39:37;;;;;;;19.00;9.07;;;;;;;;;;4308248;33;20094;-79
2023/08/17 14:42:03;;;;;;;11.18;7.32;;;;;;;;;;4305045;33;20037;-82
2023/08/17 14:44:29;;;;;;;11.63;7.10;;;;;;;;;;4307822;33;20071;-80
2023/08/17 14:46:55;;;;;;;12.88;7.78;;;;;;;;;;4299354;33;20610;-82
2023/08/17 14:49:21;;;;;;;8.77;6.78;;;;;;;;;;4292221;33;20033;-80
2023/08/17 14:51:48;;;;;;;16.75;6.10;;;;;;;;;;4293652;33;20056;-80
2023/08/17 14:54:14;;;;;;;14.45;5.18;;;;;;;;;;4291308;33;20603;-81
2023/08/17 14:56:40;;;;;;;6.55;5.62;;;;;;;;;;4292650;33;20070;-80
2023/08/17 14:59:06;;;;;;;7.53;5.22;;;;;;;;;;4292990;33;20068;-78
2023/08/17 15:01:32;;;;;;;8.25;6.15;;;;;;;;;;4294233;33;20391;-80
2023/08/17 15:03:58;;;;;;;14.52;5.80;;;;;;;;;;4293037;33;20077;-81
2023/08/17 15:06:25;;;;;;;12.37;7.15;;;;;;;;;;4292801;33;20094;-80
2023/08/17 15:08:51;;;;;;;8.50;5.87;;;;;;;;;;4287304;33;20587;-80
2023/08/17 15:11:17;;;;;;;12.57;5.87;;;;;;;;;;4278874;33;20076;-83
2023/08/17 15:13:43;;;;;;;11.63;6.57;;;;;;;;;;4279354;33;20045;-81
2023/08/17 15:16:10;;;;;;;8.82;6.28;;;;;;;;;;4279698;33;20049;-78
2023/08/17 15:18:37;;;;;;;6.20;5.40;;;;;;;;;;4278587;33;20443;-83
2023/08/17 15:21:03;;;;;;;13.60;6.10;;;;;;;;;;4297442;33;20431;-81
2023/08/17 15:23:30;;;;;;;12.25;6.00;;;;;;;;;;4308020;33;20036;-80
2023/08/17 15:25:56;;;;;;;6.18;5.18;;;;;;;;;;4293728;33;20057;-81
2023/08/17 15:28:22;;;;;;;6.40;5.55;;;;;;;;;;4281416;33;20100;-81
2023/08/17 15:30:49;;;;;;;8.77;6.20;;;;;;;;;;4283274;33;20036;-79
2023/08/17 15:33:15;;;;;;;6.62;5.32;;;;;;;;;;4297759;33;20135;-83
2023/08/17 15:35:41;;;;;;;9.77;5.00;;;;;;;;;;4301601;33;20549;-81
2023/08/17 15:38:07;;;;;;;6.87;5.05;;;;;;;;;;4267152;33;20513;-82
2023/08/17 15:40:33;;;;;;;6.65;4.87;;;;;;;;;;4267433;33;20053;-85
2023/08/17 15:43:00;;;;;;;9.57;6.65;;;;;;;;;;4251539;33;20042;-85
2023/08/17 15:45:27;;;;;;;6.10;5.47;;;;;;;;;;4238790;33;20831;-83
2023/08/17 15:47:53;;;;;;;10.25;5.57;;;;;;;;;;4241008;33;20077;-80
2023/08/17 15:50:19;;;;;;;11.38;5.22;;;;;;;;;;4247299;33;20062;-81
2023/08/17 15:52:46;;;;;;;13.50;5.10;;;;;;;;;;4244819;33;20064;-83
2023/08/17 15:55:12;;;;;;;7.05;5.10;;;;;;;;;;4242973;33;20141;-83
2023/08/17 15:57:38;;;;;;;10.23;5.05;;;;;;;;;;4253689;33;20444;-80
2023/08/17 16:00:05;;;;;;;20.05;6.95;;;;;;;;;;4239070;33;20050;-79
2023/08/17 16:02:34;;;;;;;10.57;5.87;;;;;;;;;;4238564;33;20042;-82
2023/08/17 16:05:01;;;;;;;16.02;5.47;;;;;;;;;;4227097;33;20089;-83
2023/08/17 16:07:27;;;;;;;7.60;6.00;;;;;;;;;;4230424;33;20416;-81
2023/08/17 16:09:53;;;;;;;14.90;5.97;;;;;;;;;;4241271;33;20046;-82
2023/08/17 16:12:20;;;;;;;7.28;5.80;;;;;;;;;;4238633;33;20062;-79
2023/08/17 16:14:46;;;;;;;10.18;5.80;;;;;;;;;;4250272;33;20067;-81
2023/08/17 16:17:12;;;;;;;18.73;6.25;;;;;;;;;;4258468;33;20387;-82
2023/08/17 16:19:38;;;;;;;13.23;7.00;;;;;;;;;;4256454;33;20072;-81
2023/08/17 16:22:04;;;;;;;16.27;6.20;;;;;;;;;;4250893;33;20429;-81
2023/08/17 16:24:30;;;;;;;9.18;7.00;;;;;;;;;;4250958;33;20060;-80
2023/08/17 16:26:57;;;;;;;11.57;7.10;;;;;;;;;;4250990;33;20049;-81
2023/08/17 16:29:23;;;;;;;14.95;6.95;;;;;;;;;;4248672;33;20047;-80
2023/08/17 16:32:00;;;;;;;11.10;6.43;;;;;;;;;;4254931;33;20445;-80
2023/08/17 16:34:28;;;;;;;10.43;6.10;;;;;;;;;;4292816;33;20061;-79